Time;durP1;ratioP1;P1;durP2;ratioP2;P2;SDS_P1;SDS_P2;PMS_P1;PMS_P2;Temp;Humidity;BMP_temperature;BMP_pressure;BME280_temperature;BME280_humidity;BME280_pressure;Samples;Min_cycle;Max_cycle;Signal;HPM_P1;HPM_P2
2021/08/20 00:02:21;;;;;;;4.65;2.35;;;21.10;60.30;;;;;;5054414;28;20740;-58
2021/08/20 00:04:46;;;;;;;4.80;2.53;;;21.10;60.30;;;;;;5048881;28;20021;-58
2021/08/20 00:07:12;;;;;;;4.45;2.40;;;21.10;60.30;;;;;;5053864;28;20107;-59
2021/08/20 00:09:38;;;;;;;4.93;2.30;;;21.10;60.30;;;;;;5053866;28;20036;-58
2021/08/20 00:12:05;;;;;;;5.90;2.83;;;21.00;60.20;;;;;;5054258;28;20103;-59
2021/08/20 00:14:30;;;;;;;4.97;2.58;;;21.00;60.20;;;;;;5053844;28;20051;-64
2021/08/20 00:16:56;;;;;;;5.45;2.92;;;21.00;60.20;;;;;;5052841;28;20029;-69
2021/08/20 00:19:22;;;;;;;5.00;2.80;;;21.00;60.10;;;;;;5053820;28;20024;-63
2021/08/20 00:21:47;;;;;;;5.28;2.70;;;21.00;60.10;;;;;;5054051;28;20032;-69
2021/08/20 00:24:15;;;;;;;4.60;2.50;;;20.90;60.10;;;;;;5053896;28;20025;-70
2021/08/20 00:26:41;;;;;;;5.13;2.70;;;20.90;60.20;;;;;;5054000;28;20488;-70
2021/08/20 00:29:07;;;;;;;5.32;2.70;;;20.90;60.30;;;;;;5052322;28;20025;-70
2021/08/20 00:31:33;;;;;;;4.78;2.60;;;20.90;60.40;;;;;;5053955;28;20463;-70
2021/08/20 00:33:58;;;;;;;4.80;2.45;;;20.90;60.40;;;;;;5053502;28;20040;-70
2021/08/20 00:36:24;;;;;;;4.85;2.60;;;20.90;60.30;;;;;;5052458;28;20036;-70
2021/08/20 00:38:50;;;;;;;5.18;2.67;;;20.90;60.50;;;;;;5053249;28;20021;-70
2021/08/20 00:41:16;;;;;;;4.82;2.60;;;20.90;60.50;;;;;;5053547;28;20029;-70
2021/08/20 00:43:43;;;;;;;5.00;2.72;;;20.90;60.60;;;;;;5053609;28;20025;-67
2021/08/20 00:46:09;;;;;;;5.45;3.20;;;20.90;60.70;;;;;;5053532;28;20820;-66
2021/08/20 00:48:35;;;;;;;6.78;3.15;;;20.90;60.60;;;;;;5053400;28;20046;-67
2021/08/20 00:51:04;;;;;;;5.18;2.85;;;20.80;60.60;;;;;;5053332;28;20041;-67
2021/08/20 00:53:36;;;;;;;5.07;2.72;;;20.80;60.70;;;;;;5052538;28;20049;-67
2021/08/20 00:56:03;;;;;;;4.65;2.58;;;20.70;60.80;;;;;;5051913;28;20032;-69
2021/08/20 00:58:33;;;;;;;4.55;2.53;;;20.70;60.90;;;;;;5053153;28;20021;-65
2021/08/20 01:00:59;;;;;;;4.35;2.40;;;20.70;60.90;;;;;;5053074;28;20111;-65
2021/08/20 01:03:29;;;;;;;5.10;2.70;;;20.80;61.00;;;;;;5051992;28;20475;-65
2021/08/20 01:05:56;;;;;;;4.72;2.63;;;20.80;61.00;;;;;;5050832;28;20028;-66
2021/08/20 01:08:26;;;;;;;4.95;2.60;;;20.80;60.90;;;;;;5052322;28;20059;-67
2021/08/20 01:10:55;;;;;;;4.70;2.60;;;20.80;61.50;;;;;;5052698;28;20024;-67
2021/08/20 01:13:21;;;;;;;5.20;2.83;;;20.80;60.80;;;;;;5053037;28;20032;-63
2021/08/20 01:15:48;;;;;;;6.13;3.10;;;20.80;60.70;;;;;;5053040;28;20029;-64
2021/08/20 01:18:32;;;;;;;4.75;2.60;;;20.80;60.70;;;;;;5052983;28;20021;-64
2021/08/20 01:21:01;;;;;;;4.90;2.63;;;20.80;60.50;;;;;;5052100;28;20029;-64
2021/08/20 01:23:28;;;;;;;5.10;2.70;;;20.80;60.60;;;;;;5052717;28;20068;-64
2021/08/20 01:25:54;;;;;;;5.30;2.60;;;20.80;60.60;;;;;;5052997;28;20027;-63
2021/08/20 01:28:21;;;;;;;5.53;2.78;;;20.80;60.60;;;;;;5052709;28;20033;-64
2021/08/20 01:30:48;;;;;;;5.50;3.00;;;20.80;60.50;;;;;;5052342;28;20029;-67
2021/08/20 01:33:14;;;;;;;4.50;2.30;;;20.80;60.40;;;;;;5052582;28;20037;-68
2021/08/20 01:35:40;;;;;;;5.15;2.70;;;20.80;60.50;;;;;;5052576;28;20036;-67
2021/08/20 01:38:06;;;;;;;5.15;2.80;;;20.80;60.50;;;;;;5051247;28;20029;-64
2021/08/20 01:40:32;;;;;;;5.32;3.00;;;20.80;60.30;;;;;;5052213;28;20483;-69
2021/08/20 01:42:58;;;;;;;5.50;2.83;;;20.80;60.10;;;;;;5052606;28;20029;-67
2021/08/20 01:45:23;;;;;;;5.45;3.10;;;20.80;60.20;;;;;;5052570;28;20025;-64
2021/08/20 01:47:49;;;;;;;5.40;3.10;;;20.80;60.00;;;;;;5052387;28;20057;-69
2021/08/20 01:50:15;;;;;;;5.63;2.80;;;20.80;59.80;;;;;;5051653;28;20072;-66
2021/08/20 01:52:40;;;;;;;5.55;3.08;;;20.80;59.70;;;;;;5052344;28;20053;-68
2021/08/20 01:55:09;;;;;;;4.90;2.80;;;20.80;59.60;;;;;;5052127;28;20048;-63
2021/08/20 01:57:35;;;;;;;5.10;3.10;;;20.70;59.60;;;;;;5051999;28;20021;-64
2021/08/20 02:00:03;;;;;;;5.10;2.83;;;20.70;59.60;;;;;;5051880;28;20063;-64
2021/08/20 02:02:29;;;;;;;6.25;2.90;;;20.70;59.70;;;;;;5050781;28;20021;-70
2021/08/20 02:04:55;;;;;;;5.20;2.85;;;20.60;59.70;;;;;;5051978;28;20112;-70
2021/08/20 02:07:20;;;;;;;5.18;3.10;;;20.70;59.80;;;;;;5052088;28;20072;-67
2021/08/20 02:09:47;;;;;;;5.47;2.90;;;20.70;59.80;;;;;;5051975;28;20056;-66
2021/08/20 02:12:14;;;;;;;5.20;2.72;;;20.70;59.80;;;;;;5052151;28;20024;-67
2021/08/20 02:14:40;;;;;;;4.75;2.72;;;20.60;59.90;;;;;;5052026;28;20021;-66
2021/08/20 02:17:05;;;;;;;5.55;3.15;;;20.60;60.00;;;;;;5052293;28;20029;-63
2021/08/20 02:19:32;;;;;;;5.95;3.00;;;20.60;60.00;;;;;;5051509;28;20053;-58
2021/08/20 02:21:58;;;;;;;5.40;2.88;;;20.60;60.10;;;;;;5051827;28;20021;-59
2021/08/20 02:24:23;;;;;;;5.15;2.60;;;20.50;60.20;;;;;;5051972;28;20464;-59
2021/08/20 02:26:49;;;;;;;5.72;2.97;;;20.50;60.30;;;;;;5051717;28;20054;-67
2021/08/20 02:29:15;;;;;;;4.65;2.60;;;20.50;60.40;;;;;;5051526;28;20021;-65
2021/08/20 02:31:40;;;;;;;4.85;2.78;;;20.50;60.30;;;;;;5051532;28;20021;-68
2021/08/20 02:34:06;;;;;;;4.88;2.50;;;20.50;60.40;;;;;;5051277;28;20021;-67
2021/08/20 02:36:32;;;;;;;5.38;3.00;;;20.50;60.50;;;;;;5051745;28;20491;-64
2021/08/20 02:38:57;;;;;;;5.43;3.30;;;20.50;60.60;;;;;;5051527;28;20021;-64
2021/08/20 02:41:24;;;;;;;5.10;3.00;;;20.40;60.60;;;;;;5050901;28;20032;-64
2021/08/20 02:43:50;;;;;;;5.03;2.90;;;20.40;60.70;;;;;;5038668;28;20025;-64
2021/08/20 02:46:16;;;;;;;5.78;3.38;;;20.40;60.80;;;;;;5031667;28;20030;-65
2021/08/20 02:48:42;;;;;;;5.68;3.15;;;20.40;60.80;;;;;;5051188;28;20083;-65
2021/08/20 02:51:09;;;;;;;6.35;3.58;;;20.40;60.90;;;;;;5051316;28;20048;-69
2021/08/20 02:53:34;;;;;;;5.72;3.40;;;20.40;61.00;;;;;;5049642;28;20037;-66
2021/08/20 02:56:00;;;;;;;5.38;3.25;;;20.40;60.90;;;;;;5049915;28;20103;-67
2021/08/20 02:58:26;;;;;;;6.57;3.78;;;20.40;61.00;;;;;;5051143;28;20388;-63
2021/08/20 03:00:51;;;;;;;6.05;3.80;;;20.40;61.00;;;;;;5051657;28;20029;-65
2021/08/20 03:03:17;;;;;;;6.05;3.63;;;20.40;61.00;;;;;;5054200;28;20082;-65
2021/08/20 03:05:43;;;;;;;6.03;3.75;;;20.40;61.00;;;;;;5054911;28;20468;-66
2021/08/20 03:08:09;;;;;;;6.43;3.78;;;20.30;60.90;;;;;;5055136;28;20033;-67
2021/08/20 03:10:35;;;;;;;5.32;3.10;;;20.30;60.90;;;;;;5052740;28;20087;-67
2021/08/20 03:13:01;;;;;;;5.60;3.58;;;20.30;61.00;;;;;;5050124;28;20099;-67
2021/08/20 03:15:27;;;;;;;6.20;3.90;;;20.30;61.10;;;;;;5053843;28;20053;-67
2021/08/20 03:17:52;;;;;;;6.75;4.10;;;20.30;61.20;;;;;;5054942;28;20487;-67
2021/08/20 03:20:18;;;;;;;6.30;3.63;;;20.30;61.20;;;;;;5054672;28;20079;-68
2021/08/20 03:22:44;;;;;;;6.97;4.13;;;20.30;61.10;;;;;;5055161;28;20369;-70
2021/08/20 03:25:10;;;;;;;6.75;4.20;;;20.40;61.10;;;;;;5055242;28;20476;-70
2021/08/20 03:27:35;;;;;;;6.70;4.20;;;20.40;61.00;;;;;;5054874;28;20104;-69
2021/08/20 03:30:02;;;;;;;7.50;4.72;;;20.40;60.90;;;;;;5054977;28;20116;-65
2021/08/20 03:32:27;;;;;;;7.78;4.60;;;20.40;60.70;;;;;;5054771;28;20041;-67
2021/08/20 03:34:54;;;;;;;7.03;4.25;;;20.40;60.70;;;;;;5055040;28;20025;-67
2021/08/20 03:37:20;;;;;;;7.45;4.97;;;20.40;60.80;;;;;;5054647;28;20013;-70
2021/08/20 03:39:46;;;;;;;7.53;4.68;;;20.40;60.80;;;;;;5054832;28;20071;-64
2021/08/20 03:42:11;;;;;;;6.82;4.75;;;20.40;60.80;;;;;;5054773;28;20021;-63
2021/08/20 03:44:37;;;;;;;7.70;4.90;;;20.40;60.90;;;;;;5054839;28;20029;-64
2021/08/20 03:47:03;;;;;;;6.38;4.45;;;20.30;61.00;;;;;;5054783;28;20025;-64
2021/08/20 03:49:29;;;;;;;7.40;4.68;;;20.40;61.10;;;;;;5054899;28;20040;-58
2021/08/20 03:51:55;;;;;;;6.50;4.05;;;20.40;61.10;;;;;;5054535;28;20037;-63
2021/08/20 03:54:20;;;;;;;7.30;4.80;;;20.40;61.10;;;;;;5054377;28;20057;-59
2021/08/20 03:56:46;;;;;;;7.10;4.45;;;20.40;61.20;;;;;;5054181;28;20464;-63
2021/08/20 03:59:12;;;;;;;6.85;4.20;;;20.40;61.20;;;;;;5054464;28;20464;-66
2021/08/20 04:01:38;;;;;;;7.00;4.68;;;20.40;61.30;;;;;;5053158;28;20029;-67
2021/08/20 04:04:03;;;;;;;8.73;5.20;;;20.40;61.40;;;;;;5054146;28;20059;-67
2021/08/20 04:06:29;;;;;;;7.35;4.65;;;20.40;61.60;;;;;;5052942;28;20021;-69
2021/08/20 04:08:55;;;;;;;6.80;4.60;;;20.40;61.50;;;;;;5054312;28;20487;-69
2021/08/20 04:11:20;;;;;;;7.35;4.25;;;20.40;61.50;;;;;;5054178;28;20487;-70
2021/08/20 04:13:46;;;;;;;6.43;4.10;;;20.40;61.50;;;;;;5053417;28;20025;-66
2021/08/20 04:16:12;;;;;;;7.70;4.50;;;20.30;61.70;;;;;;5053558;28;20036;-66
2021/08/20 04:18:41;;;;;;;6.47;3.97;;;20.30;61.90;;;;;;5053917;28;20379;-67
2021/08/20 04:21:07;;;;;;;6.55;3.92;;;20.40;61.90;;;;;;5053921;28;20025;-68
2021/08/20 04:23:34;;;;;;;7.28;4.13;;;20.40;62.30;;;;;;5045205;28;20051;-67
2021/08/20 04:26:00;;;;;;;6.50;3.95;;;20.40;62.00;;;;;;5053715;28;20049;-67
2021/08/20 04:28:25;;;;;;;6.20;3.95;;;20.40;62.10;;;;;;5053904;28;20060;-60
2021/08/20 04:30:51;;;;;;;7.22;4.38;;;20.50;62.00;;;;;;5053993;28;20032;-71
2021/08/20 04:33:17;;;;;;;6.78;4.35;;;20.50;62.00;;;;;;5060251;28;20082;-70
2021/08/20 04:35:43;;;;;;;7.70;4.60;;;20.60;62.00;;;;;;5056605;28;20365;-70
2021/08/20 04:38:09;;;;;;;6.88;4.25;;;20.50;62.00;;;;;;5053862;28;20032;-60
2021/08/20 04:40:35;;;;;;;7.10;4.60;;;20.50;62.10;;;;;;5052164;28;20021;-59
2021/08/20 04:43:00;;;;;;;6.82;4.47;;;20.50;62.10;;;;;;5049719;28;20074;-68
2021/08/20 04:45:26;;;;;;;6.70;4.47;;;20.50;62.10;;;;;;5040144;28;20394;-62
2021/08/20 04:47:51;;;;;;;6.88;4.72;;;20.50;62.10;;;;;;5053650;28;20033;-68
2021/08/20 04:50:18;;;;;;;7.85;4.45;;;20.50;62.00;;;;;;5053727;28;20033;-62
2021/08/20 04:52:44;;;;;;;7.78;5.20;;;20.50;62.10;;;;;;5052835;28;20035;-59
2021/08/20 04:55:10;;;;;;;6.53;4.35;;;20.50;62.10;;;;;;5052863;28;20041;-59
2021/08/20 04:57:35;;;;;;;6.65;4.28;;;20.50;62.20;;;;;;5053198;28;20074;-59
2021/08/20 05:00:02;;;;;;;6.68;4.03;;;20.60;62.20;;;;;;5053145;28;20078;-70
2021/08/20 05:02:29;;;;;;;7.38;4.60;;;20.60;62.10;;;;;;5052870;28;20096;-63
2021/08/20 05:04:55;;;;;;;7.03;4.50;;;20.60;61.90;;;;;;5053195;28;20024;-59
2021/08/20 05:07:20;;;;;;;6.55;4.20;;;20.60;61.90;;;;;;5050311;28;20020;-63
2021/08/20 05:09:46;;;;;;;8.13;4.60;;;20.60;62.00;;;;;;5051273;28;20025;-65
2021/08/20 05:12:12;;;;;;;6.65;4.50;;;20.60;62.00;;;;;;5052599;28;20029;-65
2021/08/20 05:14:38;;;;;;;7.38;4.78;;;20.70;62.10;;;;;;5052605;28;20484;-64
2021/08/20 05:17:04;;;;;;;7.07;4.22;;;20.70;62.10;;;;;;5052943;28;20049;-66
2021/08/20 05:19:29;;;;;;;6.85;4.30;;;20.70;62.10;;;;;;5052617;28;20060;-67
2021/08/20 05:21:55;;;;;;;7.03;4.57;;;20.80;62.10;;;;;;5052485;28;20365;-64
2021/08/20 05:24:21;;;;;;;6.18;4.00;;;20.80;62.00;;;;;;5052303;28;20422;-72
2021/08/20 05:26:46;;;;;;;7.15;4.68;;;20.90;61.90;;;;;;5052712;28;20024;-65
2021/08/20 05:29:12;;;;;;;7.18;4.35;;;20.90;61.80;;;;;;5052378;28;20468;-65
2021/08/20 05:31:38;;;;;;;7.18;4.20;;;21.00;61.80;;;;;;5051274;28;20469;-65
2021/08/20 05:34:03;;;;;;;6.30;4.10;;;21.00;61.80;;;;;;5052303;28;20040;-65
2021/08/20 05:36:29;;;;;;;6.15;3.90;;;21.10;61.70;;;;;;5052231;28;20025;-65
2021/08/20 05:38:55;;;;;;;7.60;4.80;;;21.10;61.60;;;;;;5052191;28;20368;-58
2021/08/20 05:41:20;;;;;;;6.35;3.90;;;21.10;61.50;;;;;;5051955;28;20021;-58
2021/08/20 05:43:46;;;;;;;5.80;3.50;;;21.20;61.60;;;;;;5051945;28;20095;-58
2021/08/20 05:46:13;;;;;;;5.47;3.38;;;21.20;61.60;;;;;;5052390;28;20502;-58
2021/08/20 05:48:39;;;;;;;6.45;4.13;;;21.40;61.60;;;;;;5052087;28;20075;-66
2021/08/20 05:51:05;;;;;;;6.25;3.80;;;21.40;61.30;;;;;;5052213;28;20025;-66
2021/08/20 05:53:31;;;;;;;6.25;4.05;;;21.50;61.10;;;;;;5051940;28;20061;-60
2021/08/20 05:55:57;;;;;;;5.55;3.42;;;21.60;60.90;;;;;;5052045;28;20127;-61
2021/08/20 05:58:23;;;;;;;6.18;3.72;;;21.70;60.80;;;;;;5052010;28;20029;-64
2021/08/20 06:00:49;;;;;;;6.28;3.88;;;21.80;60.70;;;;;;5049697;28;20032;-64
2021/08/20 06:03:24;;;;;;;6.50;3.95;;;21.90;60.50;;;;;;5050525;28;20029;-58
2021/08/20 06:05:50;;;;;;;6.18;3.67;;;22.00;60.30;;;;;;5051877;28;20478;-60
2021/08/20 06:08:15;;;;;;;6.70;4.40;;;22.10;60.20;;;;;;5051857;28;20025;-64
2021/08/20 06:10:45;;;;;;;6.80;4.00;;;22.20;59.90;;;;;;5051581;28;20025;-68
2021/08/20 06:13:11;;;;;;;6.00;3.85;;;22.30;60.00;;;;;;5051776;28;20028;-65
2021/08/20 06:15:37;;;;;;;7.32;4.10;;;22.40;59.80;;;;;;5051875;28;20104;-65
2021/08/20 06:18:03;;;;;;;5.30;3.33;;;22.50;59.70;;;;;;5051797;28;20029;-68
2021/08/20 06:20:29;;;;;;;6.00;3.65;;;22.50;59.60;;;;;;5051599;28;20021;-67
2021/08/20 06:22:55;;;;;;;6.40;3.75;;;22.70;59.50;;;;;;5051716;28;20035;-67
2021/08/20 06:25:20;;;;;;;6.40;3.85;;;22.80;59.20;;;;;;5050452;28;20115;-66
2021/08/20 06:27:46;;;;;;;6.60;4.00;;;23.00;59.00;;;;;;5051354;28;20063;-65
2021/08/20 06:30:12;;;;;;;6.53;4.50;;;23.10;58.80;;;;;;5051635;28;20033;-66
2021/08/20 06:32:37;;;;;;;6.45;4.55;;;23.30;58.50;;;;;;5050892;28;20025;-60
2021/08/20 06:35:04;;;;;;;7.07;4.40;;;23.40;58.00;;;;;;5045832;28;20187;-71
2021/08/20 06:37:29;;;;;;;6.43;4.40;;;23.50;57.70;;;;;;5051522;28;20016;-62
2021/08/20 06:39:55;;;;;;;7.30;4.55;;;23.50;57.50;;;;;;5051229;28;20051;-60
2021/08/20 06:42:21;;;;;;;7.50;5.00;;;23.60;57.40;;;;;;5051530;28;20029;-66
2021/08/20 06:44:47;;;;;;;7.32;4.88;;;23.60;57.10;;;;;;5051496;28;20025;-67
2021/08/20 06:47:13;;;;;;;6.55;4.40;;;23.60;56.80;;;;;;5037513;28;20034;-58
2021/08/20 06:49:39;;;;;;;6.97;4.75;;;23.60;57.00;;;;;;5050820;28;20033;-59
2021/08/20 06:52:08;;;;;;;8.80;5.20;;;23.60;56.90;;;;;;5050688;28;20036;-66
2021/08/20 06:54:33;;;;;;;6.88;4.55;;;23.60;56.80;;;;;;5050724;28;20528;-64
2021/08/20 06:56:59;;;;;;;6.63;4.07;;;23.50;56.90;;;;;;5051120;28;20147;-65
2021/08/20 06:59:25;;;;;;;6.28;4.18;;;23.50;57.00;;;;;;5051270;28;20029;-65
2021/08/20 07:01:50;;;;;;;6.45;4.22;;;23.50;57.20;;;;;;5051038;28;20028;-61
2021/08/20 07:04:16;;;;;;;7.40;4.57;;;23.50;57.00;;;;;;5051101;28;20035;-61
2021/08/20 07:06:42;;;;;;;6.50;4.40;;;23.60;56.80;;;;;;5051037;28;20119;-58
2021/08/20 07:09:07;;;;;;;6.70;4.72;;;23.50;56.70;;;;;;5051110;28;20056;-65
2021/08/20 07:11:33;;;;;;;7.35;4.75;;;23.60;56.60;;;;;;5051271;28;20029;-64
2021/08/20 07:14:00;;;;;;;6.60;4.65;;;23.60;56.60;;;;;;5050303;28;20472;-59
2021/08/20 07:16:26;;;;;;;8.52;5.13;;;23.60;57.10;;;;;;5050847;28;20040;-59
2021/08/20 07:18:52;;;;;;;6.55;4.20;;;23.70;56.20;;;;;;5051402;28;20384;-67
2021/08/20 07:21:18;;;;;;;7.75;4.65;;;23.70;56.40;;;;;;5050938;28;20032;-58
2021/08/20 07:23:43;;;;;;;7.55;4.70;;;23.70;56.20;;;;;;5050753;28;20508;-59
2021/08/20 07:26:10;;;;;;;6.65;4.50;;;23.70;56.30;;;;;;5051282;28;20129;-68
2021/08/20 07:28:36;;;;;;;7.07;4.97;;;23.80;56.10;;;;;;5049773;28;20033;-60
2021/08/20 07:31:02;;;;;;;7.40;4.60;;;23.80;55.70;;;;;;5050931;28;20384;-65
2021/08/20 07:33:29;;;;;;;6.45;4.43;;;23.80;55.70;;;;;;5047654;28;20025;-64
2021/08/20 07:35:56;;;;;;;6.95;4.72;;;23.80;55.60;;;;;;5051325;28;20108;-59
2021/08/20 07:38:21;;;;;;;7.10;4.80;;;23.90;55.60;;;;;;5050724;28;20025;-65
2021/08/20 07:40:47;;;;;;;7.10;4.82;;;23.90;55.40;;;;;;5050451;28;20024;-60
2021/08/20 07:43:13;;;;;;;8.13;4.35;;;23.90;55.30;;;;;;5043765;28;20049;-65
2021/08/20 07:45:38;;;;;;;6.63;4.10;;;23.90;55.30;;;;;;5035505;28;20034;-58
2021/08/20 07:48:04;;;;;;;6.20;3.92;;;24.00;55.30;;;;;;5049838;28;20075;-60
2021/08/20 07:50:30;;;;;;;7.63;5.03;;;24.00;55.00;;;;;;5041246;28;20048;-66
2021/08/20 07:52:56;;;;;;;6.68;4.75;;;24.10;54.80;;;;;;5039189;28;20073;-67
2021/08/20 07:55:23;;;;;;;7.03;4.20;;;24.10;54.70;;;;;;5041362;28;20037;-59
2021/08/20 07:57:51;;;;;;;7.45;4.57;;;24.10;54.80;;;;;;5040783;28;20033;-63
2021/08/20 08:00:23;;;;;;;6.93;4.18;;;24.10;54.70;;;;;;5039688;28;20025;-65
2021/08/20 08:02:49;;;;;;;7.15;4.47;;;24.10;54.70;;;;;;5049223;28;20373;-58
2021/08/20 08:05:15;;;;;;;7.10;4.68;;;24.10;54.40;;;;;;5053459;28;20051;-64
2021/08/20 08:07:41;;;;;;;6.47;4.47;;;24.10;54.50;;;;;;5042845;28;20422;-67
2021/08/20 08:10:07;;;;;;;6.47;4.60;;;24.10;54.50;;;;;;5044174;28;20029;-61
2021/08/20 08:12:33;;;;;;;6.97;4.10;;;24.10;54.50;;;;;;5043979;28;20469;-66
2021/08/20 08:14:58;;;;;;;6.25;4.22;;;24.10;54.50;;;;;;5046971;28;20044;-58
2021/08/20 08:17:24;;;;;;;6.30;3.90;;;24.10;54.40;;;;;;5046342;28;20029;-58
2021/08/20 08:19:50;;;;;;;7.63;4.88;;;24.10;54.60;;;;;;5048149;28;20056;-59
2021/08/20 08:22:16;;;;;;;7.10;4.68;;;24.20;54.10;;;;;;5039009;28;20365;-65
2021/08/20 08:24:41;;;;;;;6.78;4.60;;;24.20;54.00;;;;;;5038706;28;20543;-57
2021/08/20 08:27:07;;;;;;;6.85;4.38;;;24.20;54.00;;;;;;5045472;28;20034;-58
2021/08/20 08:29:33;;;;;;;7.47;4.72;;;24.20;54.00;;;;;;5042808;28;20033;-59
2021/08/20 08:31:58;;;;;;;6.80;4.53;;;24.30;53.80;;;;;;5043306;28;20037;-59
2021/08/20 08:34:24;;;;;;;7.82;4.47;;;24.30;53.60;;;;;;5039045;28;20034;-58
2021/08/20 08:36:50;;;;;;;6.25;4.35;;;24.30;53.60;;;;;;5041218;28;20133;-65
2021/08/20 08:39:15;;;;;;;7.78;4.47;;;24.30;53.40;;;;;;5036998;28;20047;-60
2021/08/20 08:41:41;;;;;;;6.47;4.28;;;24.40;53.30;;;;;;5043373;28;20033;-70
2021/08/20 08:44:07;;;;;;;7.20;4.60;;;24.40;53.50;;;;;;5040999;28;20078;-68
2021/08/20 08:46:37;;;;;;;6.18;4.20;;;24.50;53.10;;;;;;5041342;28;20033;-58
2021/08/20 08:49:06;;;;;;;6.95;4.10;;;24.60;53.30;;;;;;5049111;28;20037;-63
2021/08/20 08:51:32;;;;;;;6.53;4.60;;;24.60;53.10;;;;;;5038953;28;20374;-67
2021/08/20 08:53:58;;;;;;;5.97;3.90;;;24.70;53.00;;;;;;5047734;28;20063;-59
2021/08/20 08:56:24;;;;;;;6.75;3.88;;;24.80;53.20;;;;;;5044892;28;20392;-63
2021/08/20 08:58:50;;;;;;;5.80;3.92;;;24.80;52.80;;;;;;5038327;28;20358;-66
2021/08/20 09:01:29;;;;;;;6.30;3.88;;;24.90;52.60;;;;;;5040825;28;20021;-60
2021/08/20 09:04:10;;;;;;;6.00;3.47;;;24.90;52.60;;;;;;5052610;28;20029;-58
2021/08/20 09:06:40;;;;;;;6.95;4.60;;;25.00;52.20;;;;;;5043802;28;20783;-62
2021/08/20 09:09:07;;;;;;;6.25;3.88;;;25.10;52.10;;;;;;5032899;28;20438;-59
2021/08/20 09:11:33;;;;;;;5.88;3.88;;;25.30;52.20;;;;;;5034526;28;20135;-68
2021/08/20 09:13:59;;;;;;;6.10;4.03;;;25.40;52.00;;;;;;5052721;28;20025;-58
2021/08/20 09:16:40;;;;;;;6.88;4.07;;;25.50;51.70;;;;;;5052366;28;20124;-74
2021/08/20 09:19:19;;;;;;;5.90;3.63;;;25.70;51.20;;;;;;5052628;28;20025;-60
2021/08/20 09:21:53;;;;;;;6.75;4.20;;;25.80;51.10;;;;;;5052520;28;20379;-65
2021/08/20 09:24:39;;;;;;;6.40;4.00;;;26.00;50.70;;;;;;5052599;28;20364;-64
2021/08/20 09:27:25;;;;;;;6.82;3.85;;;26.10;50.60;;;;;;5052177;28;20047;-69
2021/08/20 09:30:07;;;;;;;7.15;4.43;;;26.30;50.60;;;;;;5047944;28;20107;-58
2021/08/20 09:32:35;;;;;;;6.82;4.30;;;26.60;50.40;;;;;;5046228;28;20025;-59
2021/08/20 09:35:01;;;;;;;7.25;3.90;;;26.80;50.00;;;;;;5045386;28;20045;-58
2021/08/20 09:37:28;;;;;;;6.22;3.60;;;27.10;49.90;;;;;;5042523;28;20076;-58
2021/08/20 09:40:05;;;;;;;7.10;4.38;;;27.30;49.70;;;;;;5045388;28;20473;-63
2021/08/20 09:42:30;;;;;;;8.68;4.13;;;27.50;49.60;;;;;;5038323;28;20473;-67
2021/08/20 09:45:20;;;;;;;6.30;3.85;;;27.70;48.50;;;;;;5052210;28;20033;-70
2021/08/20 09:47:51;;;;;;;8.00;5.00;;;27.90;48.00;;;;;;5041643;28;20049;-57
2021/08/20 09:50:22;;;;;;;6.97;4.18;;;28.10;48.10;;;;;;5041051;28;20099;-60
2021/08/20 09:52:49;;;;;;;6.75;4.47;;;28.30;47.90;;;;;;5038261;28;20157;-58
2021/08/20 09:55:37;;;;;;;6.63;4.15;;;28.50;47.60;;;;;;5046087;28;20102;-59
2021/08/20 09:58:07;;;;;;;7.85;4.20;;;28.70;47.30;;;;;;5040114;28;20034;-59
2021/08/20 10:00:34;;;;;;;;;;;28.80;46.90;;;;;;5046824;28;20802;-59
2021/08/20 10:03:03;;;;;;;8.05;4.57;;;28.80;46.20;;;;;;5050302;28;19908;-58
2021/08/20 10:05:30;;;;;;;6.13;3.85;;;28.80;46.50;;;;;;5039773;28;20049;-71
2021/08/20 10:07:57;;;;;;;6.07;3.65;;;28.90;46.60;;;;;;5043696;28;20025;-69
2021/08/20 10:10:23;;;;;;;6.22;3.60;;;29.00;46.70;;;;;;5050811;28;20037;-58
2021/08/20 10:12:50;;;;;;;5.55;3.40;;;29.20;46.70;;;;;;5035638;28;20376;-59
2021/08/20 10:15:16;;;;;;;6.68;4.18;;;29.40;46.10;;;;;;5035502;28;20107;-58
2021/08/20 10:17:42;;;;;;;6.15;3.97;;;29.50;45.80;;;;;;5035569;28;20053;-58
2021/08/20 10:20:08;;;;;;;6.05;3.63;;;29.50;45.60;;;;;;5040054;28;20049;-65
2021/08/20 10:22:35;;;;;;;5.68;3.20;;;29.60;45.70;;;;;;5038793;28;20036;-59
2021/08/20 10:25:02;;;;;;;5.30;3.08;;;29.70;45.80;;;;;;5041656;28;20688;-59
2021/08/20 10:27:32;;;;;;;5.82;3.55;;;29.80;45.50;;;;;;5032052;28;20033;-65
2021/08/20 10:29:58;;;;;;;7.03;3.70;;;29.90;45.40;;;;;;5035588;28;20032;-65
2021/08/20 10:32:23;;;;;;;5.90;3.60;;;30.00;45.80;;;;;;5041958;28;20033;-65
2021/08/20 10:34:49;;;;;;;5.85;3.40;;;30.20;45.80;;;;;;5040200;28;20025;-59
2021/08/20 10:37:22;;;;;;;6.50;3.90;;;30.40;45.80;;;;;;5051727;28;20063;-59
2021/08/20 10:39:50;;;;;;;6.20;3.65;;;30.70;45.00;;;;;;5039727;28;20017;-64
2021/08/20 10:42:16;;;;;;;6.00;3.47;;;30.80;44.70;;;;;;5035498;28;20022;-69
2021/08/20 10:44:44;;;;;;;5.40;3.08;;;31.00;45.00;;;;;;5038884;28;20025;-69
2021/08/20 10:47:27;;;;;;;4.78;2.90;;;31.20;44.60;;;;;;5041571;28;20482;-63
2021/08/20 10:50:12;;;;;;;5.32;2.75;;;31.40;44.40;;;;;;5031574;28;20079;-73
2021/08/20 10:52:44;;;;;;;5.68;3.00;;;31.70;43.60;;;;;;5031539;28;20476;-59
2021/08/20 10:55:09;;;;;;;;;;;32.10;43.50;;;;;;5031577;28;20552;-65
2021/08/20 10:57:35;;;;;;;5.50;3.20;;;32.40;42.90;;;;;;5041583;28;20010;-59
2021/08/20 11:00:25;;;;;;;6.20;3.25;;;32.90;43.30;;;;;;5054548;28;20435;-65
2021/08/20 11:02:56;;;;;;;5.80;3.28;;;33.40;42.10;;;;;;5043869;28;20059;-58
2021/08/20 11:05:43;;;;;;;6.47;4.00;;;33.60;42.00;;;;;;5049344;28;20392;-67
2021/08/20 11:08:27;;;;;;;5.25;2.97;;;33.90;41.10;;;;;;5035028;28;20113;-67
2021/08/20 11:10:56;;;;;;;4.63;2.50;;;34.30;39.40;;;;;;5049231;28;20029;-57
2021/08/20 11:13:22;;;;;;;5.43;2.90;;;34.50;40.30;;;;;;5049438;28;20025;-59
2021/08/20 11:15:49;;;;;;;5.05;2.72;;;34.70;39.30;;;;;;5049396;28;20021;-65
2021/08/20 11:18:15;;;;;;;5.25;2.92;;;34.80;39.70;;;;;;5050356;28;20024;-59
2021/08/20 11:20:45;;;;;;;5.75;2.60;;;34.70;39.00;;;;;;5050946;28;20024;-58
2021/08/20 11:23:14;;;;;;;5.05;2.80;;;34.40;38.90;;;;;;5050342;28;20467;-67
2021/08/20 11:25:56;;;;;;;5.55;2.75;;;34.10;39.10;;;;;;5044082;28;20129;-58
2021/08/20 11:28:31;;;;;;;5.00;2.40;;;33.70;38.70;;;;;;5055418;28;20043;-69
2021/08/20 11:31:03;;;;;;;4.22;2.33;;;33.60;38.50;;;;;;5055041;28;20057;-71
2021/08/20 11:33:38;;;;;;;5.70;2.90;;;33.60;39.30;;;;;;5034875;28;20021;-62
2021/08/20 11:36:07;;;;;;;7.15;3.03;;;33.80;39.50;;;;;;5035260;28;20075;-76
2021/08/20 11:38:42;;;;;;;4.70;2.70;;;34.30;39.40;;;;;;5035112;28;20397;-75
2021/08/20 11:41:26;;;;;;;4.45;2.47;;;34.80;38.80;;;;;;5038163;28;20032;-61
2021/08/20 11:43:55;;;;;;;5.18;2.40;;;35.20;38.20;;;;;;5055214;28;20021;-69
2021/08/20 11:46:24;;;;;;;4.18;2.13;;;35.50;38.20;;;;;;5054629;28;20029;-65
2021/08/20 11:48:54;;;;;;;4.05;2.10;;;35.80;38.20;;;;;;5054594;28;20029;-73
2021/08/20 11:51:26;;;;;;;5.60;2.53;;;36.20;37.90;;;;;;5054730;28;20025;-59
2021/08/20 11:53:51;;;;;;;5.32;2.85;;;36.60;37.70;;;;;;5041477;28;20194;-68
2021/08/20 11:56:17;;;;;;;4.87;2.60;;;36.90;37.10;;;;;;5054664;28;20524;-69
2021/08/20 11:58:44;;;;;;;5.15;2.55;;;37.20;36.90;;;;;;5054494;28;20021;-61
2021/08/20 12:01:27;;;;;;;5.28;2.63;;;37.40;36.20;;;;;;5054339;28;20021;-61
2021/08/20 12:03:58;;;;;;;4.40;2.20;;;37.50;36.00;;;;;;5054408;28;20104;-61
2021/08/20 12:06:25;;;;;;;5.72;3.00;;;37.60;35.90;;;;;;5054311;28;20090;-69
2021/08/20 12:08:55;;;;;;;4.63;2.60;;;37.60;35.50;;;;;;5054379;28;20053;-69
2021/08/20 12:11:22;;;;;;;;;;;37.60;35.90;;;;;;5065683;28;20085;-58
2021/08/20 12:13:50;;;;;;;4.22;2.10;;;37.40;36.20;;;;;;5056689;28;19908;-67
2021/08/20 12:16:36;;;;;;;4.07;2.00;;;37.40;36.60;;;;;;5052504;28;20091;-68
2021/08/20 12:19:11;;;;;;;4.40;2.13;;;37.70;36.50;;;;;;5052928;28;20048;-66
2021/08/20 12:21:36;;;;;;;5.38;2.30;;;37.90;37.00;;;;;;5053379;28;20053;-64
2021/08/20 12:24:04;;;;;;;3.80;1.98;;;37.90;34.20;;;;;;5053435;28;20495;-63
2021/08/20 12:26:30;;;;;;;5.32;2.20;;;37.50;34.50;;;;;;5053528;28;20025;-63
2021/08/20 12:28:56;;;;;;;5.57;2.17;;;37.10;34.70;;;;;;5053771;28;20040;-63
2021/08/20 12:31:24;;;;;;;4.32;2.20;;;36.80;34.70;;;;;;5053008;28;20107;-63
2021/08/20 12:34:00;;;;;;;5.03;2.17;;;36.40;34.80;;;;;;5052990;28;20029;-65
2021/08/20 12:36:26;;;;;;;4.72;2.42;;;36.10;34.70;;;;;;5053450;28;20035;-64
2021/08/20 12:39:12;;;;;;;4.05;2.00;;;35.90;35.20;;;;;;5053419;28;20067;-65
2021/08/20 12:41:39;;;;;;;4.90;2.15;;;35.80;35.40;;;;;;5052659;28;20049;-65
2021/08/20 12:44:07;;;;;;;6.05;2.10;;;35.80;35.30;;;;;;5052056;28;20027;-65
2021/08/20 12:46:37;;;;;;;4.82;2.10;;;35.80;35.50;;;;;;5052327;28;20078;-65
2021/08/20 12:49:05;;;;;;;4.18;2.08;;;35.90;35.80;;;;;;5053294;28;20024;-66
2021/08/20 12:51:36;;;;;;;4.57;2.35;;;36.10;35.40;;;;;;5051209;28;20041;-65